createdAt,value
2022-12-04T00:02:33.482Z,17.70
2022-12-04T00:05:34.974Z,17.67
2022-12-04T00:08:36.843Z,17.67
2022-12-04T00:11:38.467Z,17.63
2022-12-04T00:15:00.776Z,17.60
2022-12-04T00:18:01.369Z,17.60
2022-12-04T00:21:05.483Z,17.60
2022-12-04T00:24:07.133Z,17.60
2022-12-04T00:27:08.566Z,17.57
2022-12-04T00:30:10.690Z,17.58
2022-12-04T00:33:13.170Z,17.58
2022-12-04T00:36:17.730Z,17.57
2022-12-04T00:39:19.198Z,17.55
2022-12-04T00:42:20.702Z,17.54
2022-12-04T00:45:22.171Z,17.54
2022-12-04T00:48:23.701Z,17.52
2022-12-04T00:51:25.676Z,17.51
2022-12-04T00:54:27.168Z,17.49
2022-12-04T00:57:28.644Z,17.48
2022-12-04T01:00:30.596Z,17.47
2022-12-04T01:03:32.171Z,17.46
2022-12-04T01:06:34.688Z,17.45
2022-12-04T01:09:36.145Z,17.43
2022-12-04T01:12:37.671Z,17.43
2022-12-04T01:15:41.101Z,17.44
2022-12-04T01:18:42.540Z,17.42
2022-12-04T01:21:44.031Z,17.42
2022-12-04T01:24:45.524Z,17.42
2022-12-04T01:27:46.964Z,17.41
2022-12-04T01:31:05.725Z,17.42
2022-12-04T01:34:07.183Z,17.38
2022-12-04T01:37:08.897Z,17.37
2022-12-04T01:40:14.231Z,17.36
2022-12-04T01:43:16.496Z,17.34
2022-12-04T01:46:18.019Z,17.32
2022-12-04T01:49:24.868Z,17.31
2022-12-04T01:52:26.713Z,17.30
2022-12-04T01:55:29.803Z,17.30
2022-12-04T01:58:36.455Z,17.30
2022-12-04T02:01:51.026Z,17.30
2022-12-04T02:04:53.291Z,17.29
2022-12-04T02:07:59.118Z,17.30
2022-12-04T02:11:10.703Z,17.30
2022-12-04T02:14:15.107Z,17.29
2022-12-04T02:17:19.534Z,17.29
2022-12-04T02:20:20.926Z,17.26
2022-12-04T02:23:44.266Z,17.27
2022-12-04T02:26:57.995Z,17.27
2022-12-04T02:30:06.145Z,17.25
2022-12-04T02:33:17.807Z,17.25
2022-12-04T02:36:23.648Z,17.21
2022-12-04T02:39:41.298Z,17.22
2022-12-04T02:42:47.908Z,17.21
2022-12-04T02:46:22.230Z,17.21
2022-12-04T02:49:32.313Z,17.21
2022-12-04T02:52:39.055Z,17.21
2022-12-04T02:56:01.142Z,17.22
2022-12-04T02:59:07.785Z,17.21
2022-12-04T03:02:15.921Z,17.20
2022-12-04T03:05:22.916Z,17.20
2022-12-04T03:08:34.496Z,17.19
2022-12-04T03:11:38.908Z,17.17
2022-12-04T03:14:58.086Z,17.16
2022-12-04T03:18:14.720Z,17.15
2022-12-04T03:21:19.754Z,17.13
2022-12-04T03:24:29.134Z,17.12
2022-12-04T03:27:45.937Z,17.12
2022-12-04T03:30:57.234Z,17.11
2022-12-04T03:34:05.505Z,17.10
2022-12-04T03:37:17.566Z,17.09
2022-12-04T03:40:29.067Z,17.09
2022-12-04T03:43:39.494Z,17.10
2022-12-04T03:46:41.043Z,17.07
2022-12-04T03:49:42.528Z,17.06
2022-12-04T03:53:18.456Z,17.08
2022-12-04T03:56:24.683Z,17.07
2022-12-04T03:59:30.185Z,17.06
2022-12-04T04:02:36.571Z,17.05
2022-12-04T04:05:41.982Z,17.05
2022-12-04T04:08:48.655Z,17.03
2022-12-04T04:12:25.561Z,17.03
2022-12-04T04:15:45.895Z,17.01
2022-12-04T04:19:09.908Z,17.02
2022-12-04T04:22:30.557Z,17.01
2022-12-04T04:25:33.802Z,17.03
2022-12-04T04:28:40.202Z,17.02
2022-12-04T04:32:00.214Z,17.02
2022-12-04T04:35:04.760Z,17.02
2022-12-04T04:38:17.450Z,17.04
2022-12-04T04:41:50.542Z,17.04
2022-12-04T04:45:10.768Z,17.01
2022-12-04T04:48:16.913Z,17.01
2022-12-04T04:51:20.310Z,17.00
2022-12-04T04:54:22.502Z,16.98
2022-12-04T04:57:33.871Z,16.99
2022-12-04T05:00:36.486Z,16.97
2022-12-04T05:03:38.523Z,16.97
2022-12-04T05:06:40.016Z,16.95
2022-12-04T05:09:41.658Z,16.96
2022-12-04T05:12:43.193Z,16.97
2022-12-04T05:15:44.793Z,16.97
2022-12-04T05:19:05.147Z,16.99
2022-12-04T05:22:06.743Z,16.99
2022-12-04T05:25:08.552Z,16.99
2022-12-04T05:28:10.247Z,16.99
2022-12-04T05:31:11.784Z,16.99
2022-12-04T05:34:13.291Z,16.98
2022-12-04T05:37:14.773Z,16.98
2022-12-04T05:40:16.528Z,16.98
2022-12-04T05:43:18.913Z,16.97
2022-12-04T05:46:20.745Z,16.97
2022-12-04T05:49:22.262Z,16.95
2022-12-04T05:52:23.827Z,16.95
2022-12-04T05:55:25.352Z,16.95
2022-12-04T05:58:28.078Z,16.96
2022-12-04T06:01:29.506Z,16.97
2022-12-04T06:04:31.022Z,16.97
2022-12-04T06:07:32.581Z,16.96
2022-12-04T06:10:34.098Z,16.95
2022-12-04T06:13:35.547Z,16.95
2022-12-04T06:16:40.158Z,16.95
2022-12-04T06:19:41.714Z,16.95
2022-12-04T06:22:43.239Z,16.93
2022-12-04T06:25:44.712Z,16.93
2022-12-04T06:28:46.216Z,16.93
2022-12-04T06:31:47.771Z,16.90
2022-12-04T06:34:53.968Z,16.93
2022-12-04T06:37:55.461Z,16.90
2022-12-04T06:40:57.082Z,16.89
2022-12-04T06:43:58.895Z,16.89
2022-12-04T06:47:01.116Z,16.89
2022-12-04T06:50:03.816Z,16.91
2022-12-04T06:53:08.450Z,16.91
2022-12-04T06:56:17.734Z,16.93
2022-12-04T06:59:19.259Z,16.92
2022-12-04T07:02:20.809Z,16.92
2022-12-04T07:05:22.391Z,16.91
2022-12-04T07:08:24.508Z,16.91
2022-12-04T07:11:26.120Z,16.89
2022-12-04T07:14:27.640Z,16.89
2022-12-04T07:17:29.113Z,16.88
2022-12-04T07:20:31.238Z,16.87
2022-12-04T07:23:33.064Z,16.87
2022-12-04T07:26:34.590Z,16.88
2022-12-04T07:29:36.081Z,16.87
2022-12-04T07:32:37.980Z,16.88
2022-12-04T07:35:39.475Z,16.89
2022-12-04T07:38:41.881Z,16.91
2022-12-04T07:41:43.353Z,16.90
2022-12-04T07:44:45.094Z,16.92
2022-12-04T07:47:46.591Z,16.93
2022-12-04T07:50:48.243Z,16.96
2022-12-04T07:53:51.101Z,16.99
2022-12-04T07:56:52.690Z,17.02
2022-12-04T07:59:54.480Z,17.05
2022-12-04T08:02:56.264Z,17.07
2022-12-04T08:06:05.660Z,17.12
2022-12-04T08:09:10.072Z,17.14
2022-12-04T08:12:11.985Z,17.15
2022-12-04T08:15:13.517Z,17.19
2022-12-04T08:18:15.205Z,17.21
2022-12-04T08:21:20.749Z,17.26
2022-12-04T08:24:22.311Z,17.28
2022-12-04T08:27:23.808Z,17.30
2022-12-04T08:30:25.266Z,17.33
2022-12-04T08:33:26.724Z,17.35
2022-12-04T08:36:28.617Z,17.35
2022-12-04T08:39:30.191Z,17.36
2022-12-04T08:42:31.681Z,17.37
2022-12-04T08:45:33.127Z,17.35
2022-12-04T08:48:34.905Z,17.35
2022-12-04T08:51:36.676Z,17.33
2022-12-04T08:54:38.163Z,17.34
2022-12-04T08:57:39.658Z,17.32
2022-12-04T09:00:41.192Z,17.33
2022-12-04T09:03:43.154Z,17.32
2022-12-04T09:06:44.665Z,17.31
2022-12-04T09:09:48.463Z,17.30
2022-12-04T09:12:50.287Z,17.30
2022-12-04T09:15:51.889Z,17.29
2022-12-04T09:18:54.170Z,17.29
2022-12-04T09:21:55.628Z,17.28
2022-12-04T09:24:57.133Z,17.29
2022-12-04T09:27:58.646Z,17.32
2022-12-04T09:31:05.107Z,17.35
2022-12-04T09:34:06.611Z,17.39
2022-12-04T09:37:08.122Z,17.40
2022-12-04T09:40:25.768Z,17.44
2022-12-04T09:43:43.816Z,17.44
2022-12-04T09:47:00.533Z,17.48
2022-12-04T09:50:13.917Z,17.50
2022-12-04T09:53:20.933Z,17.53
2022-12-04T09:56:27.656Z,17.57
2022-12-04T09:59:31.921Z,17.60
2022-12-04T10:02:42.490Z,17.65
2022-12-04T10:06:14.771Z,17.67
2022-12-04T10:09:36.444Z,17.70
2022-12-04T10:13:08.882Z,17.72
2022-12-04T10:16:25.513Z,17.74
2022-12-04T10:19:41.885Z,17.75
2022-12-04T10:23:07.084Z,17.75
2022-12-04T10:26:17.571Z,17.75
2022-12-04T10:29:30.742Z,17.76
2022-12-04T10:32:34.239Z,17.75
2022-12-04T10:35:37.857Z,17.76
2022-12-04T10:38:59.774Z,17.76
2022-12-04T10:42:06.373Z,17.77
2022-12-04T10:45:10.227Z,17.77
2022-12-04T10:48:22.333Z,17.79
2022-12-04T10:51:23.973Z,17.79
2022-12-04T10:54:45.043Z,17.81
2022-12-04T10:57:46.986Z,17.81
2022-12-04T11:01:07.011Z,17.84
2022-12-04T11:04:20.009Z,17.84
2022-12-04T11:07:31.897Z,17.85
2022-12-04T11:10:44.525Z,17.86
2022-12-04T11:13:46.025Z,17.85
2022-12-04T11:16:59.210Z,17.86
2022-12-04T11:20:18.909Z,17.86
2022-12-04T11:23:21.050Z,17.86
2022-12-04T11:26:37.786Z,17.86
2022-12-04T11:29:44.730Z,17.86
2022-12-04T11:32:47.219Z,17.86
2022-12-04T11:35:55.544Z,17.88
2022-12-04T11:39:29.681Z,17.90
2022-12-04T11:42:31.777Z,17.89
2022-12-04T11:45:33.807Z,17.89
2022-12-04T11:48:44.928Z,17.91
2022-12-04T11:52:14.391Z,17.91
2022-12-04T11:55:22.475Z,17.90
2022-12-04T11:59:25.347Z,17.91
2022-12-04T12:02:44.110Z,17.88
2022-12-04T12:05:57.552Z,17.88
2022-12-04T12:09:02.330Z,17.85
2022-12-04T12:12:15.978Z,17.87
2022-12-04T12:15:31.217Z,17.87
2022-12-04T12:19:00.112Z,17.85
2022-12-04T12:22:10.739Z,17.84
2022-12-04T12:25:36.554Z,17.84
2022-12-04T12:28:41.103Z,17.83
2022-12-04T12:32:08.748Z,17.83
2022-12-04T12:35:24.827Z,17.81
2022-12-04T12:38:31.144Z,17.80
2022-12-04T12:41:38.307Z,17.81
2022-12-04T12:44:58.915Z,17.80
2022-12-04T12:48:07.607Z,17.80
2022-12-04T12:51:36.069Z,17.80
2022-12-04T12:54:43.779Z,17.79
2022-12-04T12:57:58.598Z,17.78
2022-12-04T13:01:03.609Z,17.76
2022-12-04T13:04:05.134Z,17.75
2022-12-04T13:07:18.923Z,17.77
2022-12-04T13:10:35.230Z,17.79
2022-12-04T13:13:44.384Z,17.78
2022-12-04T13:16:51.972Z,17.78
2022-12-04T13:19:58.180Z,17.78
2022-12-04T13:23:17.998Z,17.79
2022-12-04T13:26:51.116Z,17.77
2022-12-04T13:30:10.256Z,17.76
2022-12-04T13:33:34.820Z,17.76
2022-12-04T13:36:58.100Z,17.76
2022-12-04T13:40:02.531Z,17.75
2022-12-04T13:43:16.130Z,17.77
2022-12-04T13:46:23.656Z,17.78
2022-12-04T13:49:29.216Z,17.77
2022-12-04T13:52:42.189Z,17.78
2022-12-04T13:55:43.693Z,17.77
2022-12-04T13:58:45.221Z,17.77
2022-12-04T14:01:49.746Z,17.79
2022-12-04T14:05:29.002Z,17.80
2022-12-04T14:08:37.911Z,17.79
2022-12-04T14:11:48.126Z,17.80
2022-12-04T14:14:55.593Z,17.81
2022-12-04T14:18:02.796Z,17.81
2022-12-04T14:21:06.005Z,17.80
2022-12-04T14:24:35.047Z,17.82
2022-12-04T14:27:45.680Z,17.80
2022-12-04T14:31:08.542Z,17.80
2022-12-04T14:34:23.851Z,17.78
2022-12-04T14:37:37.652Z,17.78
2022-12-04T14:40:45.373Z,17.77
2022-12-04T14:43:49.851Z,17.75
2022-12-04T14:46:54.943Z,17.77
2022-12-04T14:50:44.033Z,17.78
2022-12-04T14:54:15.114Z,17.78
2022-12-04T14:57:43.212Z,17.78
2022-12-04T15:00:51.111Z,17.78
2022-12-04T15:03:59.043Z,17.79
2022-12-04T15:07:01.090Z,17.78
2022-12-04T15:10:35.689Z,17.79
2022-12-04T15:13:38.679Z,17.79
2022-12-04T15:16:40.528Z,17.79
2022-12-04T15:19:42.350Z,17.79
2022-12-04T15:22:44.514Z,17.79
2022-12-04T15:25:57.859Z,17.80
2022-12-04T15:29:02.997Z,17.80
2022-12-04T15:32:11.863Z,17.81
2022-12-04T15:35:22.575Z,17.82
2022-12-04T15:38:24.264Z,17.81
2022-12-04T15:41:35.114Z,17.63
2022-12-04T15:44:36.623Z,17.37
2022-12-04T15:47:51.569Z,16.97
2022-12-04T15:51:02.103Z,16.76
2022-12-04T15:54:04.055Z,16.83
2022-12-04T15:57:22.361Z,16.97
2022-12-04T16:00:36.262Z,17.08
2022-12-04T16:03:44.058Z,17.17
2022-12-04T16:06:48.292Z,17.26
2022-12-04T16:10:02.604Z,17.35
2022-12-04T16:13:05.616Z,17.42
2022-12-04T16:16:11.789Z,17.49
2022-12-04T16:19:22.378Z,17.53
2022-12-04T16:22:26.206Z,17.59
2022-12-04T16:25:31.467Z,17.62
2022-12-04T16:28:32.942Z,17.65
2022-12-04T16:31:34.774Z,17.68
2022-12-04T16:34:36.270Z,17.70
2022-12-04T16:37:37.778Z,17.72
2022-12-04T16:40:39.276Z,17.73
2022-12-04T16:43:40.803Z,17.74
2022-12-04T16:46:43.095Z,17.75
2022-12-04T16:49:47.373Z,17.76
2022-12-04T16:52:48.835Z,17.74
2022-12-04T16:55:51.946Z,17.74
2022-12-04T16:58:53.423Z,17.73
2022-12-04T17:01:55.029Z,17.72
2022-12-04T17:04:58.119Z,17.72
2022-12-04T17:08:00.550Z,17.73
2022-12-04T17:11:02.087Z,17.72
2022-12-04T17:14:07.026Z,17.72
2022-12-04T17:17:08.523Z,17.71
2022-12-04T17:20:15.831Z,17.73
2022-12-04T17:23:17.403Z,17.71
2022-12-04T17:26:19.396Z,17.71
2022-12-04T17:29:20.904Z,17.70
2022-12-04T17:32:23.026Z,17.71
2022-12-04T17:35:27.013Z,17.71
2022-12-04T17:38:28.470Z,17.71
2022-12-04T17:41:30.080Z,17.71
2022-12-04T17:44:31.597Z,17.71
2022-12-04T17:47:34.862Z,17.72
2022-12-04T17:50:36.319Z,17.73
2022-12-04T17:53:37.879Z,17.74
2022-12-04T17:56:43.322Z,17.76
2022-12-04T17:59:48.507Z,17.77
2022-12-04T18:02:53.222Z,17.79
2022-12-04T18:05:55.066Z,17.80
2022-12-04T18:08:57.393Z,17.82
2022-12-04T18:12:01.395Z,17.85
2022-12-04T18:15:05.175Z,17.86
2022-12-04T18:18:06.704Z,17.87
2022-12-04T18:21:11.976Z,17.90
2022-12-04T18:24:14.214Z,17.90
2022-12-04T18:27:15.675Z,17.90
2022-12-04T18:30:17.186Z,17.91
2022-12-04T18:33:19.211Z,17.91
2022-12-04T18:36:23.809Z,17.91
2022-12-04T18:39:26.159Z,17.92
2022-12-04T18:42:27.653Z,17.90
2022-12-04T18:45:29.252Z,17.90
2022-12-04T18:48:31.339Z,17.91
2022-12-04T18:51:35.628Z,17.90
2022-12-04T18:54:37.086Z,17.91
2022-12-04T18:57:38.656Z,17.90
2022-12-04T19:00:40.150Z,17.90
2022-12-04T19:03:42.397Z,17.89
2022-12-04T19:06:50.234Z,17.89
2022-12-04T19:10:11.324Z,17.91
2022-12-04T19:13:13.118Z,17.90
2022-12-04T19:16:16.434Z,17.91
2022-12-04T19:19:18.251Z,17.90
2022-12-04T19:22:19.729Z,17.90
2022-12-04T19:25:21.211Z,17.91
2022-12-04T19:28:22.839Z,17.91
2022-12-04T19:31:31.813Z,17.91
2022-12-04T19:34:33.543Z,17.90
2022-12-04T19:37:39.694Z,17.89
2022-12-04T19:40:43.455Z,17.87
2022-12-04T19:43:50.040Z,17.89
2022-12-04T19:46:51.562Z,17.87
2022-12-04T19:49:53.040Z,17.85
2022-12-04T19:52:54.608Z,17.85
2022-12-04T19:55:56.141Z,17.83
2022-12-04T19:59:01.363Z,17.83
2022-12-04T20:02:02.919Z,17.82
2022-12-04T20:05:04.847Z,17.81
2022-12-04T20:11:11.571Z,17.81
2022-12-04T20:14:13.615Z,17.80
2022-12-04T20:17:15.579Z,17.79
2022-12-04T20:20:17.046Z,17.80
2022-12-04T20:23:18.529Z,17.79
2022-12-04T20:26:27.260Z,17.81
2022-12-04T20:29:28.715Z,17.79
2022-12-04T20:32:30.210Z,17.80
2022-12-04T20:35:31.855Z,17.80
2022-12-04T20:38:33.350Z,17.80
2022-12-04T20:41:35.319Z,17.79
2022-12-04T20:44:36.855Z,17.80
2022-12-04T20:47:39.364Z,17.80
2022-12-04T20:50:45.835Z,17.80
2022-12-04T20:53:47.808Z,17.82
2022-12-04T20:56:51.928Z,17.83
2022-12-04T20:59:54.385Z,17.83
2022-12-04T21:02:56.184Z,17.83
2022-12-04T21:05:57.682Z,17.83
2022-12-04T21:09:02.054Z,17.84
2022-12-04T21:12:23.703Z,17.84
2022-12-04T21:15:43.960Z,17.83
2022-12-04T21:18:45.480Z,17.80
2022-12-04T21:21:47.674Z,17.79
2022-12-04T21:24:49.156Z,17.79
2022-12-04T21:27:51.122Z,17.78
2022-12-04T21:30:52.720Z,17.77
2022-12-04T21:33:55.959Z,17.78
2022-12-04T21:36:57.907Z,17.76
2022-12-04T21:39:59.923Z,17.75
2022-12-04T21:43:01.823Z,17.74
2022-12-04T21:46:09.383Z,17.74
2022-12-04T21:49:11.537Z,17.73
2022-12-04T21:52:15.768Z,17.72
2022-12-04T21:55:17.259Z,17.70
2022-12-04T21:58:20.327Z,17.69
2022-12-04T22:01:23.899Z,17.69
2022-12-04T22:04:25.418Z,17.67
2022-12-04T22:07:26.994Z,17.65
2022-12-04T22:10:28.548Z,17.64
2022-12-04T22:13:30.052Z,17.62
2022-12-04T22:16:33.790Z,17.62
2022-12-04T22:19:39.042Z,17.59
2022-12-04T22:22:40.559Z,17.59
2022-12-04T22:25:42.123Z,17.57
2022-12-04T22:28:43.986Z,17.56
2022-12-04T22:31:45.562Z,17.54
2022-12-04T22:34:49.002Z,17.54
2022-12-04T22:37:50.528Z,17.52
2022-12-04T22:40:51.987Z,17.51
2022-12-04T22:43:53.480Z,17.51
2022-12-04T22:46:55.034Z,17.51
2022-12-04T22:49:56.749Z,17.50
2022-12-04T22:52:58.394Z,17.50
2022-12-04T22:56:05.427Z,17.51
2022-12-04T22:59:06.895Z,17.47
2022-12-04T23:02:08.550Z,17.47
2022-12-04T23:05:10.096Z,17.47
2022-12-04T23:08:11.795Z,17.45
2022-12-04T23:11:17.382Z,17.47
2022-12-04T23:14:18.908Z,17.44
2022-12-04T23:17:20.489Z,17.44
2022-12-04T23:20:24.738Z,17.42
2022-12-04T23:23:26.259Z,17.43
2022-12-04T23:26:31.635Z,17.43
2022-12-04T23:32:54.618Z,17.41
2022-12-04T23:35:58.270Z,17.43
2022-12-04T23:39:00.130Z,17.43
2022-12-04T23:42:01.699Z,17.41
2022-12-04T23:45:04.152Z,17.39
2022-12-04T23:48:05.958Z,17.40
2022-12-04T23:51:08.751Z,17.39
2022-12-04T23:54:10.223Z,17.38
2022-12-04T23:57:12.824Z,17.37
